sensor_id;sensor_type;location;lat;lon;timestamp;P1;durP1;ratioP1;P2;durP2;ratioP2
70707;SDS011;58277;47.316;18.908;2022-09-06T00:00:20;8.67;;;5.70;;
70707;SDS011;58277;47.316;18.908;2022-09-06T00:02:43;10.98;;;6.10;;
70707;SDS011;58277;47.316;18.908;2022-09-06T00:05:07;8.98;;;5.88;;
70707;SDS011;58277;47.316;18.908;2022-09-06T00:07:30;9.52;;;5.78;;
70707;SDS011;58277;47.316;18.908;2022-09-06T00:09:54;7.10;;;5.57;;
70707;SDS011;58277;47.316;18.908;2022-09-06T00:12:17;8.37;;;5.67;;
70707;SDS011;58277;47.316;18.908;2022-09-06T00:14:40;8.75;;;5.53;;
70707;SDS011;58277;47.316;18.908;2022-09-06T00:17:03;9.10;;;5.72;;
70707;SDS011;58277;47.316;18.908;2022-09-06T00:19:26;8.27;;;5.80;;
70707;SDS011;58277;47.316;18.908;2022-09-06T00:21:49;8.60;;;5.47;;
70707;SDS011;58277;47.316;18.908;2022-09-06T00:24:11;8.70;;;5.93;;
70707;SDS011;58277;47.316;18.908;2022-09-06T00:26:34;8.98;;;5.90;;
70707;SDS011;58277;47.316;18.908;2022-09-06T00:28:57;9.45;;;5.70;;
70707;SDS011;58277;47.316;18.908;2022-09-06T00:31:21;8.05;;;5.50;;
70707;SDS011;58277;47.316;18.908;2022-09-06T00:33:45;9.05;;;5.45;;
70707;SDS011;58277;47.316;18.908;2022-09-06T00:36:08;7.97;;;5.27;;
70707;SDS011;58277;47.316;18.908;2022-09-06T00:38:32;8.43;;;5.40;;
70707;SDS011;58277;47.316;18.908;2022-09-06T00:40:55;8.17;;;5.37;;
70707;SDS011;58277;47.316;18.908;2022-09-06T00:43:18;7.97;;;5.45;;
70707;SDS011;58277;47.316;18.908;2022-09-06T00:45:41;10.05;;;5.88;;
70707;SDS011;58277;47.316;18.908;2022-09-06T00:48:03;8.27;;;5.70;;
70707;SDS011;58277;47.316;18.908;2022-09-06T00:50:27;9.77;;;6.10;;
70707;SDS011;58277;47.316;18.908;2022-09-06T00:52:50;8.93;;;5.95;;
70707;SDS011;58277;47.316;18.908;2022-09-06T00:55:14;8.05;;;5.82;;
70707;SDS011;58277;47.316;18.908;2022-09-06T00:57:37;7.40;;;5.65;;
70707;SDS011;58277;47.316;18.908;2022-09-06T01:00:01;9.75;;;6.30;;
70707;SDS011;58277;47.316;18.908;2022-09-06T01:02:27;9.77;;;6.60;;
70707;SDS011;58277;47.316;18.908;2022-09-06T01:04:49;9.30;;;5.85;;
70707;SDS011;58277;47.316;18.908;2022-09-06T01:18:48;7.63;;;5.70;;
70707;SDS011;58277;47.316;18.908;2022-09-06T01:24:16;7.75;;;5.25;;
70707;SDS011;58277;47.316;18.908;2022-09-06T01:32:01;8.25;;;5.28;;
70707;SDS011;58277;47.316;18.908;2022-09-06T01:34:31;9.23;;;5.60;;
70707;SDS011;58277;47.316;18.908;2022-09-06T01:37:03;8.10;;;5.47;;
70707;SDS011;58277;47.316;18.908;2022-09-06T01:39:32;9.20;;;5.65;;
70707;SDS011;58277;47.316;18.908;2022-09-06T01:41:57;7.95;;;5.85;;
70707;SDS011;58277;47.316;18.908;2022-09-06T01:44:22;7.68;;;5.53;;
70707;SDS011;58277;47.316;18.908;2022-09-06T01:52:27;9.55;;;5.15;;
70707;SDS011;58277;47.316;18.908;2022-09-06T02:00:44;8.52;;;5.80;;
70707;SDS011;58277;47.316;18.908;2022-09-06T02:03:34;8.73;;;5.50;;
70707;SDS011;58277;47.316;18.908;2022-09-06T02:06:08;8.88;;;5.40;;
70707;SDS011;58277;47.316;18.908;2022-09-06T02:08:36;7.18;;;5.40;;
70707;SDS011;58277;47.316;18.908;2022-09-06T02:11:04;8.75;;;5.50;;
70707;SDS011;58277;47.316;18.908;2022-09-06T02:13:32;8.85;;;5.38;;
70707;SDS011;58277;47.316;18.908;2022-09-06T02:16:03;8.38;;;5.28;;
70707;SDS011;58277;47.316;18.908;2022-09-06T02:18:29;9.15;;;5.30;;
70707;SDS011;58277;47.316;18.908;2022-09-06T02:20:56;8.23;;;5.40;;
70707;SDS011;58277;47.316;18.908;2022-09-06T02:23:21;8.63;;;5.28;;
70707;SDS011;58277;47.316;18.908;2022-09-06T02:25:48;7.32;;;4.90;;
70707;SDS011;58277;47.316;18.908;2022-09-06T02:28:14;7.53;;;4.88;;
70707;SDS011;58277;47.316;18.908;2022-09-06T02:30:38;9.13;;;4.93;;
70707;SDS011;58277;47.316;18.908;2022-09-06T02:33:18;8.45;;;4.80;;
70707;SDS011;58277;47.316;18.908;2022-09-06T02:35:43;7.88;;;5.10;;
70707;SDS011;58277;47.316;18.908;2022-09-06T02:38:08;7.68;;;5.00;;
70707;SDS011;58277;47.316;18.908;2022-09-06T02:40:31;7.70;;;5.05;;
70707;SDS011;58277;47.316;18.908;2022-09-06T02:42:54;7.10;;;4.80;;
70707;SDS011;58277;47.316;18.908;2022-09-06T02:45:17;7.47;;;5.15;;
70707;SDS011;58277;47.316;18.908;2022-09-06T02:47:39;8.32;;;4.93;;
70707;SDS011;58277;47.316;18.908;2022-09-06T02:50:02;6.47;;;4.75;;
70707;SDS011;58277;47.316;18.908;2022-09-06T02:52:25;8.27;;;5.07;;
70707;SDS011;58277;47.316;18.908;2022-09-06T02:54:48;8.40;;;4.82;;
70707;SDS011;58277;47.316;18.908;2022-09-06T02:57:11;7.35;;;4.97;;
70707;SDS011;58277;47.316;18.908;2022-09-06T02:59:34;10.48;;;5.30;;
70707;SDS011;58277;47.316;18.908;2022-09-06T03:01:57;7.88;;;4.72;;
70707;SDS011;58277;47.316;18.908;2022-09-06T03:04:19;7.13;;;5.13;;
70707;SDS011;58277;47.316;18.908;2022-09-06T03:06:42;8.82;;;5.47;;
70707;SDS011;58277;47.316;18.908;2022-09-06T03:09:05;8.82;;;5.40;;
70707;SDS011;58277;47.316;18.908;2022-09-06T03:11:27;10.13;;;5.40;;
70707;SDS011;58277;47.316;18.908;2022-09-06T03:13:50;7.70;;;5.50;;
70707;SDS011;58277;47.316;18.908;2022-09-06T03:16:13;9.73;;;5.40;;
70707;SDS011;58277;47.316;18.908;2022-09-06T03:18:36;9.00;;;5.43;;
70707;SDS011;58277;47.316;18.908;2022-09-06T03:20:59;9.48;;;5.78;;
70707;SDS011;58277;47.316;18.908;2022-09-06T03:23:23;9.43;;;5.70;;
70707;SDS011;58277;47.316;18.908;2022-09-06T03:25:47;8.48;;;5.35;;
70707;SDS011;58277;47.316;18.908;2022-09-06T03:28:10;8.63;;;5.55;;
70707;SDS011;58277;47.316;18.908;2022-09-06T03:30:34;8.18;;;5.38;;
70707;SDS011;58277;47.316;18.908;2022-09-06T03:32:56;7.85;;;5.20;;
70707;SDS011;58277;47.316;18.908;2022-09-06T03:35:24;7.90;;;5.40;;
70707;SDS011;58277;47.316;18.908;2022-09-06T03:37:47;8.82;;;5.90;;
70707;SDS011;58277;47.316;18.908;2022-09-06T03:40:10;7.93;;;5.35;;
70707;SDS011;58277;47.316;18.908;2022-09-06T03:42:33;10.00;;;5.70;;
70707;SDS011;58277;47.316;18.908;2022-09-06T03:44:56;9.50;;;5.93;;
70707;SDS011;58277;47.316;18.908;2022-09-06T03:47:19;9.02;;;5.57;;
70707;SDS011;58277;47.316;18.908;2022-09-06T03:49:42;10.52;;;5.65;;
70707;SDS011;58277;47.316;18.908;2022-09-06T03:52:04;10.88;;;5.78;;
70707;SDS011;58277;47.316;18.908;2022-09-06T03:54:27;8.45;;;5.97;;
70707;SDS011;58277;47.316;18.908;2022-09-06T03:56:50;8.73;;;5.32;;
70707;SDS011;58277;47.316;18.908;2022-09-06T03:59:12;7.72;;;5.85;;
70707;SDS011;58277;47.316;18.908;2022-09-06T04:01:35;7.93;;;5.47;;
70707;SDS011;58277;47.316;18.908;2022-09-06T04:03:58;10.82;;;5.75;;
70707;SDS011;58277;47.316;18.908;2022-09-06T04:06:22;9.32;;;5.68;;
70707;SDS011;58277;47.316;18.908;2022-09-06T04:08:45;9.15;;;5.47;;
70707;SDS011;58277;47.316;18.908;2022-09-06T04:11:07;8.85;;;5.40;;
70707;SDS011;58277;47.316;18.908;2022-09-06T04:13:31;8.20;;;5.32;;
70707;SDS011;58277;47.316;18.908;2022-09-06T04:15:54;8.82;;;5.40;;
70707;SDS011;58277;47.316;18.908;2022-09-06T04:18:17;8.70;;;5.38;;
70707;SDS011;58277;47.316;18.908;2022-09-06T04:20:41;10.15;;;5.97;;
70707;SDS011;58277;47.316;18.908;2022-09-06T04:23:06;8.35;;;5.05;;
70707;SDS011;58277;47.316;18.908;2022-09-06T04:25:29;8.48;;;5.30;;
70707;SDS011;58277;47.316;18.908;2022-09-06T04:27:52;7.70;;;5.30;;
70707;SDS011;58277;47.316;18.908;2022-09-06T04:30:15;7.80;;;5.03;;
70707;SDS011;58277;47.316;18.908;2022-09-06T04:32:37;8.23;;;5.80;;
70707;SDS011;58277;47.316;18.908;2022-09-06T04:35:00;11.00;;;5.00;;
70707;SDS011;58277;47.316;18.908;2022-09-06T04:37:23;6.95;;;5.28;;
70707;SDS011;58277;47.316;18.908;2022-09-06T04:39:46;9.75;;;5.10;;
70707;SDS011;58277;47.316;18.908;2022-09-06T04:42:08;9.27;;;5.40;;
70707;SDS011;58277;47.316;18.908;2022-09-06T04:44:31;7.78;;;5.15;;
70707;SDS011;58277;47.316;18.908;2022-09-06T04:47:04;7.88;;;4.88;;
70707;SDS011;58277;47.316;18.908;2022-09-06T04:49:32;10.13;;;5.20;;
70707;SDS011;58277;47.316;18.908;2022-09-06T04:51:55;7.47;;;5.05;;
70707;SDS011;58277;47.316;18.908;2022-09-06T04:54:18;7.75;;;4.95;;
70707;SDS011;58277;47.316;18.908;2022-09-06T04:56:40;7.82;;;4.95;;
70707;SDS011;58277;47.316;18.908;2022-09-06T04:59:03;7.72;;;4.70;;
70707;SDS011;58277;47.316;18.908;2022-09-06T05:01:26;7.63;;;4.90;;
70707;SDS011;58277;47.316;18.908;2022-09-06T05:03:48;9.95;;;5.10;;
70707;SDS011;58277;47.316;18.908;2022-09-06T05:06:20;7.47;;;4.90;;
70707;SDS011;58277;47.316;18.908;2022-09-06T05:08:44;8.95;;;4.80;;
70707;SDS011;58277;47.316;18.908;2022-09-06T05:11:07;7.90;;;4.90;;
70707;SDS011;58277;47.316;18.908;2022-09-06T05:13:30;11.13;;;5.60;;
70707;SDS011;58277;47.316;18.908;2022-09-06T05:15:52;8.55;;;4.75;;
70707;SDS011;58277;47.316;18.908;2022-09-06T05:18:15;9.50;;;5.70;;
70707;SDS011;58277;47.316;18.908;2022-09-06T05:20:38;8.93;;;5.60;;
70707;SDS011;58277;47.316;18.908;2022-09-06T05:23:01;9.20;;;4.93;;
70707;SDS011;58277;47.316;18.908;2022-09-06T05:25:24;7.57;;;5.13;;
70707;SDS011;58277;47.316;18.908;2022-09-06T05:27:47;9.57;;;5.30;;
70707;SDS011;58277;47.316;18.908;2022-09-06T05:30:10;9.15;;;4.90;;
70707;SDS011;58277;47.316;18.908;2022-09-06T05:32:34;10.75;;;5.07;;
70707;SDS011;58277;47.316;18.908;2022-09-06T05:34:56;9.18;;;5.25;;
70707;SDS011;58277;47.316;18.908;2022-09-06T05:37:19;7.80;;;4.70;;
70707;SDS011;58277;47.316;18.908;2022-09-06T05:39:44;10.07;;;5.32;;
70707;SDS011;58277;47.316;18.908;2022-09-06T05:42:07;7.63;;;5.00;;
70707;SDS011;58277;47.316;18.908;2022-09-06T05:44:30;8.85;;;5.32;;
70707;SDS011;58277;47.316;18.908;2022-09-06T05:46:52;6.87;;;4.73;;
70707;SDS011;58277;47.316;18.908;2022-09-06T05:49:15;11.25;;;6.20;;
70707;SDS011;58277;47.316;18.908;2022-09-06T05:51:41;7.85;;;5.32;;
70707;SDS011;58277;47.316;18.908;2022-09-06T05:54:04;13.50;;;5.03;;
70707;SDS011;58277;47.316;18.908;2022-09-06T05:56:27;8.15;;;5.07;;
70707;SDS011;58277;47.316;18.908;2022-09-06T05:58:51;8.23;;;4.77;;
70707;SDS011;58277;47.316;18.908;2022-09-06T06:01:22;10.30;;;4.70;;
70707;SDS011;58277;47.316;18.908;2022-09-06T06:03:56;8.75;;;4.97;;
70707;SDS011;58277;47.316;18.908;2022-09-06T06:06:20;6.75;;;4.68;;
70707;SDS011;58277;47.316;18.908;2022-09-06T06:08:43;8.73;;;5.07;;
70707;SDS011;58277;47.316;18.908;2022-09-06T06:11:06;7.63;;;4.88;;
70707;SDS011;58277;47.316;18.908;2022-09-06T06:13:29;8.98;;;4.90;;
70707;SDS011;58277;47.316;18.908;2022-09-06T06:15:56;8.88;;;5.00;;
70707;SDS011;58277;47.316;18.908;2022-09-06T06:18:19;10.43;;;4.95;;
70707;SDS011;58277;47.316;18.908;2022-09-06T06:20:41;9.38;;;4.80;;
70707;SDS011;58277;47.316;18.908;2022-09-06T06:23:04;7.97;;;5.13;;
70707;SDS011;58277;47.316;18.908;2022-09-06T06:25:27;7.97;;;5.07;;
70707;SDS011;58277;47.316;18.908;2022-09-06T06:27:51;9.35;;;4.88;;
70707;SDS011;58277;47.316;18.908;2022-09-06T06:30:14;7.93;;;5.07;;
70707;SDS011;58277;47.316;18.908;2022-09-06T06:32:39;7.35;;;4.90;;
70707;SDS011;58277;47.316;18.908;2022-09-06T06:35:02;7.53;;;4.80;;
70707;SDS011;58277;47.316;18.908;2022-09-06T06:37:25;7.55;;;4.90;;
70707;SDS011;58277;47.316;18.908;2022-09-06T06:39:48;10.23;;;5.15;;
70707;SDS011;58277;47.316;18.908;2022-09-06T06:42:11;8.95;;;5.57;;
70707;SDS011;58277;47.316;18.908;2022-09-06T06:44:45;9.32;;;5.30;;
70707;SDS011;58277;47.316;18.908;2022-09-06T06:47:08;10.07;;;5.10;;
70707;SDS011;58277;47.316;18.908;2022-09-06T06:49:30;11.02;;;5.40;;
70707;SDS011;58277;47.316;18.908;2022-09-06T06:51:53;7.65;;;4.95;;
70707;SDS011;58277;47.316;18.908;2022-09-06T06:54:16;9.40;;;5.40;;
70707;SDS011;58277;47.316;18.908;2022-09-06T06:56:39;9.65;;;5.88;;
70707;SDS011;58277;47.316;18.908;2022-09-06T06:59:08;10.23;;;5.10;;
70707;SDS011;58277;47.316;18.908;2022-09-06T07:01:35;10.85;;;5.00;;
70707;SDS011;58277;47.316;18.908;2022-09-06T07:03:58;9.23;;;5.10;;
70707;SDS011;58277;47.316;18.908;2022-09-06T07:06:21;9.88;;;5.10;;
70707;SDS011;58277;47.316;18.908;2022-09-06T07:09:04;11.23;;;5.60;;
70707;SDS011;58277;47.316;18.908;2022-09-06T07:11:27;10.37;;;5.17;;
70707;SDS011;58277;47.316;18.908;2022-09-06T07:13:49;12.15;;;5.80;;
70707;SDS011;58277;47.316;18.908;2022-09-06T07:18:45;8.43;;;5.47;;
70707;SDS011;58277;47.316;18.908;2022-09-06T07:21:09;9.98;;;5.30;;
70707;SDS011;58277;47.316;18.908;2022-09-06T07:23:55;8.88;;;5.30;;
70707;SDS011;58277;47.316;18.908;2022-09-06T07:26:29;9.40;;;4.88;;
70707;SDS011;58277;47.316;18.908;2022-09-06T07:28:56;8.85;;;4.90;;
70707;SDS011;58277;47.316;18.908;2022-09-06T07:31:21;9.77;;;5.43;;
70707;SDS011;58277;47.316;18.908;2022-09-06T07:34:04;7.95;;;4.90;;
70707;SDS011;58277;47.316;18.908;2022-09-06T07:36:27;9.15;;;5.32;;
70707;SDS011;58277;47.316;18.908;2022-09-06T07:38:49;7.57;;;5.15;;
70707;SDS011;58277;47.316;18.908;2022-09-06T07:41:12;8.45;;;5.35;;
70707;SDS011;58277;47.316;18.908;2022-09-06T07:43:35;13.13;;;5.57;;
70707;SDS011;58277;47.316;18.908;2022-09-06T07:45:59;13.65;;;5.95;;
70707;SDS011;58277;47.316;18.908;2022-09-06T07:48:27;8.30;;;5.93;;
70707;SDS011;58277;47.316;18.908;2022-09-06T07:51:01;8.77;;;5.35;;
70707;SDS011;58277;47.316;18.908;2022-09-06T07:53:31;10.90;;;5.28;;
70707;SDS011;58277;47.316;18.908;2022-09-06T07:55:54;8.90;;;5.63;;
70707;SDS011;58277;47.316;18.908;2022-09-06T07:58:19;6.90;;;5.38;;
70707;SDS011;58277;47.316;18.908;2022-09-06T08:00:42;9.07;;;5.63;;
70707;SDS011;58277;47.316;18.908;2022-09-06T08:03:05;8.90;;;5.43;;
70707;SDS011;58277;47.316;18.908;2022-09-06T08:05:28;8.88;;;5.43;;
70707;SDS011;58277;47.316;18.908;2022-09-06T08:08:11;12.10;;;5.43;;
70707;SDS011;58277;47.316;18.908;2022-09-06T08:10:53;8.50;;;5.50;;
70707;SDS011;58277;47.316;18.908;2022-09-06T08:13:16;9.00;;;5.33;;
70707;SDS011;58277;47.316;18.908;2022-09-06T08:15:39;10.52;;;5.30;;
70707;SDS011;58277;47.316;18.908;2022-09-06T08:18:03;8.20;;;5.40;;
70707;SDS011;58277;47.316;18.908;2022-09-06T08:20:25;10.05;;;5.38;;
70707;SDS011;58277;47.316;18.908;2022-09-06T08:22:48;7.55;;;4.90;;
70707;SDS011;58277;47.316;18.908;2022-09-06T08:25:11;9.07;;;5.50;;
70707;SDS011;58277;47.316;18.908;2022-09-06T08:27:34;8.10;;;5.53;;
70707;SDS011;58277;47.316;18.908;2022-09-06T08:29:56;10.70;;;5.60;;
70707;SDS011;58277;47.316;18.908;2022-09-06T08:32:19;8.60;;;5.35;;
70707;SDS011;58277;47.316;18.908;2022-09-06T08:34:42;10.07;;;5.32;;
70707;SDS011;58277;47.316;18.908;2022-09-06T08:37:04;7.20;;;5.10;;
70707;SDS011;58277;47.316;18.908;2022-09-06T08:39:28;7.55;;;5.15;;
70707;SDS011;58277;47.316;18.908;2022-09-06T08:41:52;10.15;;;5.07;;
70707;SDS011;58277;47.316;18.908;2022-09-06T08:44:23;8.77;;;5.22;;
70707;SDS011;58277;47.316;18.908;2022-09-06T08:47:19;7.32;;;5.10;;
70707;SDS011;58277;47.316;18.908;2022-09-06T08:49:53;7.67;;;5.40;;
70707;SDS011;58277;47.316;18.908;2022-09-06T08:55:53;8.57;;;5.50;;
70707;SDS011;58277;47.316;18.908;2022-09-06T08:58:33;11.20;;;5.72;;
70707;SDS011;58277;47.316;18.908;2022-09-06T09:01:17;8.27;;;5.43;;
70707;SDS011;58277;47.316;18.908;2022-09-06T09:03:44;11.55;;;4.95;;
70707;SDS011;58277;47.316;18.908;2022-09-06T09:06:08;11.13;;;5.70;;
70707;SDS011;58277;47.316;18.908;2022-09-06T09:08:38;8.45;;;5.38;;
70707;SDS011;58277;47.316;18.908;2022-09-06T09:11:14;11.27;;;5.60;;
70707;SDS011;58277;47.316;18.908;2022-09-06T09:16:07;9.03;;;5.73;;
70707;SDS011;58277;47.316;18.908;2022-09-06T09:18:31;9.70;;;5.97;;
70707;SDS011;58277;47.316;18.908;2022-09-06T09:20:57;8.07;;;5.65;;
70707;SDS011;58277;47.316;18.908;2022-09-06T09:23:20;9.70;;;5.82;;
70707;SDS011;58277;47.316;18.908;2022-09-06T09:25:43;8.30;;;5.88;;
70707;SDS011;58277;47.316;18.908;2022-09-06T09:28:18;8.97;;;5.87;;
70707;SDS011;58277;47.316;18.908;2022-09-06T09:30:48;11.57;;;5.57;;
70707;SDS011;58277;47.316;18.908;2022-09-06T09:35:49;7.47;;;5.50;;
70707;SDS011;58277;47.316;18.908;2022-09-06T09:38:18;9.15;;;5.60;;
70707;SDS011;58277;47.316;18.908;2022-09-06T09:43:16;10.48;;;5.80;;
70707;SDS011;58277;47.316;18.908;2022-09-06T09:46:07;7.88;;;5.55;;
70707;SDS011;58277;47.316;18.908;2022-09-06T09:48:33;9.27;;;5.70;;
70707;SDS011;58277;47.316;18.908;2022-09-06T09:50:56;8.68;;;5.63;;
70707;SDS011;58277;47.316;18.908;2022-09-06T09:53:53;8.40;;;5.30;;
70707;SDS011;58277;47.316;18.908;2022-09-06T09:56:19;7.28;;;5.22;;
70707;SDS011;58277;47.316;18.908;2022-09-06T09:58:48;8.40;;;5.43;;
70707;SDS011;58277;47.316;18.908;2022-09-06T10:03:36;6.95;;;5.40;;
70707;SDS011;58277;47.316;18.908;2022-09-06T10:06:24;8.40;;;5.73;;
70707;SDS011;58277;47.316;18.908;2022-09-06T10:09:12;6.70;;;5.43;;
70707;SDS011;58277;47.316;18.908;2022-09-06T10:11:56;7.82;;;5.10;;
70707;SDS011;58277;47.316;18.908;2022-09-06T10:16:48;8.32;;;5.22;;
70707;SDS011;58277;47.316;18.908;2022-09-06T10:19:22;11.10;;;5.03;;
70707;SDS011;58277;47.316;18.908;2022-09-06T10:21:58;7.47;;;4.80;;
70707;SDS011;58277;47.316;18.908;2022-09-06T10:24:37;7.03;;;4.90;;
70707;SDS011;58277;47.316;18.908;2022-09-06T10:27:27;13.45;;;5.15;;
70707;SDS011;58277;47.316;18.908;2022-09-06T10:29:51;8.15;;;4.80;;
70707;SDS011;58277;47.316;18.908;2022-09-06T10:35:08;6.70;;;5.00;;
70707;SDS011;58277;47.316;18.908;2022-09-06T10:43:06;6.95;;;4.70;;
70707;SDS011;58277;47.316;18.908;2022-09-06T10:55:43;8.95;;;5.22;;
70707;SDS011;58277;47.316;18.908;2022-09-06T10:58:10;6.63;;;4.40;;
70707;SDS011;58277;47.316;18.908;2022-09-06T11:00:38;6.93;;;4.65;;
70707;SDS011;58277;47.316;18.908;2022-09-06T11:03:15;10.70;;;4.43;;
70707;SDS011;58277;47.316;18.908;2022-09-06T11:06:06;6.55;;;4.20;;
70707;SDS011;58277;47.316;18.908;2022-09-06T11:08:31;9.82;;;4.82;;
70707;SDS011;58277;47.316;18.908;2022-09-06T11:11:11;6.80;;;4.50;;
70707;SDS011;58277;47.316;18.908;2022-09-06T11:13:39;7.53;;;4.50;;
70707;SDS011;58277;47.316;18.908;2022-09-06T11:26:15;6.95;;;4.13;;
70707;SDS011;58277;47.316;18.908;2022-09-06T11:29:05;6.90;;;4.60;;
70707;SDS011;58277;47.316;18.908;2022-09-06T11:31:32;5.40;;;4.60;;
70707;SDS011;58277;47.316;18.908;2022-09-06T11:34:33;8.05;;;4.57;;
70707;SDS011;58277;47.316;18.908;2022-09-06T11:36:57;8.93;;;4.30;;
70707;SDS011;58277;47.316;18.908;2022-09-06T11:39:30;5.47;;;4.00;;
70707;SDS011;58277;47.316;18.908;2022-09-06T11:53:16;7.22;;;4.50;;
70707;SDS011;58277;47.316;18.908;2022-09-06T11:55:42;8.60;;;4.25;;
70707;SDS011;58277;47.316;18.908;2022-09-06T12:00:39;7.53;;;4.75;;
70707;SDS011;58277;47.316;18.908;2022-09-06T12:03:02;8.00;;;4.30;;
70707;SDS011;58277;47.316;18.908;2022-09-06T12:08:41;7.22;;;4.32;;
70707;SDS011;58277;47.316;18.908;2022-09-06T12:11:05;6.20;;;4.53;;
70707;SDS011;58277;47.316;18.908;2022-09-06T12:14:18;5.63;;;4.45;;
70707;SDS011;58277;47.316;18.908;2022-09-06T12:19:39;6.90;;;5.05;;
70707;SDS011;58277;47.316;18.908;2022-09-06T12:24:52;6.65;;;4.63;;
70707;SDS011;58277;47.316;18.908;2022-09-06T12:27:21;9.13;;;5.10;;
70707;SDS011;58277;47.316;18.908;2022-09-06T12:29:56;5.97;;;5.10;;
70707;SDS011;58277;47.316;18.908;2022-09-06T12:32:21;6.78;;;4.93;;
70707;SDS011;58277;47.316;18.908;2022-09-06T12:34:47;7.57;;;5.30;;
70707;SDS011;58277;47.316;18.908;2022-09-06T12:37:32;7.15;;;5.22;;
70707;SDS011;58277;47.316;18.908;2022-09-06T12:40:09;7.10;;;5.00;;
70707;SDS011;58277;47.316;18.908;2022-09-06T12:42:33;6.17;;;5.07;;
70707;SDS011;58277;47.316;18.908;2022-09-06T12:44:59;7.25;;;5.35;;
70707;SDS011;58277;47.316;18.908;2022-09-06T12:47:27;13.20;;;6.53;;
70707;SDS011;58277;47.316;18.908;2022-09-06T12:52:49;8.27;;;5.63;;
70707;SDS011;58277;47.316;18.908;2022-09-06T12:55:24;8.27;;;6.07;;
70707;SDS011;58277;47.316;18.908;2022-09-06T12:57:59;7.68;;;5.43;;
70707;SDS011;58277;47.316;18.908;2022-09-06T13:00:30;6.05;;;5.45;;
70707;SDS011;58277;47.316;18.908;2022-09-06T13:05:30;8.75;;;5.45;;
70707;SDS011;58277;47.316;18.908;2022-09-06T13:07:54;6.33;;;5.20;;
70707;SDS011;58277;47.316;18.908;2022-09-06T13:10:21;10.48;;;5.25;;
70707;SDS011;58277;47.316;18.908;2022-09-06T13:12:46;7.65;;;5.10;;
70707;SDS011;58277;47.316;18.908;2022-09-06T13:15:19;7.47;;;4.82;;
70707;SDS011;58277;47.316;18.908;2022-09-06T13:17:48;4.80;;;4.30;;
70707;SDS011;58277;47.316;18.908;2022-09-06T13:20:13;5.67;;;4.90;;
70707;SDS011;58277;47.316;18.908;2022-09-06T13:23:06;7.22;;;4.55;;
70707;SDS011;58277;47.316;18.908;2022-09-06T13:25:46;6.32;;;4.95;;
70707;SDS011;58277;47.316;18.908;2022-09-06T13:28:11;6.13;;;4.47;;
70707;SDS011;58277;47.316;18.908;2022-09-06T13:30:45;6.28;;;4.68;;
70707;SDS011;58277;47.316;18.908;2022-09-06T13:33:53;6.50;;;4.50;;
70707;SDS011;58277;47.316;18.908;2022-09-06T13:41:03;7.13;;;4.68;;
70707;SDS011;58277;47.316;18.908;2022-09-06T13:43:43;5.90;;;4.53;;
70707;SDS011;58277;47.316;18.908;2022-09-06T13:46:09;6.33;;;4.53;;
70707;SDS011;58277;47.316;18.908;2022-09-06T13:48:33;6.22;;;4.57;;
70707;SDS011;58277;47.316;18.908;2022-09-06T13:50:57;5.90;;;4.65;;
70707;SDS011;58277;47.316;18.908;2022-09-06T13:53:20;5.72;;;4.18;;
70707;SDS011;58277;47.316;18.908;2022-09-06T13:55:42;5.93;;;4.78;;
70707;SDS011;58277;47.316;18.908;2022-09-06T13:58:05;6.70;;;4.43;;
70707;SDS011;58277;47.316;18.908;2022-09-06T14:00:28;5.00;;;4.25;;
70707;SDS011;58277;47.316;18.908;2022-09-06T14:02:51;6.30;;;4.82;;
70707;SDS011;58277;47.316;18.908;2022-09-06T14:05:16;5.82;;;4.60;;
70707;SDS011;58277;47.316;18.908;2022-09-06T14:07:39;7.70;;;4.88;;
70707;SDS011;58277;47.316;18.908;2022-09-06T14:10:02;5.53;;;4.07;;
70707;SDS011;58277;47.316;18.908;2022-09-06T14:12:25;5.22;;;4.30;;
70707;SDS011;58277;47.316;18.908;2022-09-06T14:14:48;7.10;;;4.50;;
70707;SDS011;58277;47.316;18.908;2022-09-06T14:17:11;5.53;;;4.40;;
70707;SDS011;58277;47.316;18.908;2022-09-06T14:19:34;7.15;;;4.43;;
70707;SDS011;58277;47.316;18.908;2022-09-06T14:21:57;6.80;;;4.40;;
70707;SDS011;58277;47.316;18.908;2022-09-06T14:24:19;6.15;;;4.70;;
70707;SDS011;58277;47.316;18.908;2022-09-06T14:26:42;8.15;;;4.85;;
70707;SDS011;58277;47.316;18.908;2022-09-06T14:29:05;6.13;;;4.60;;
70707;SDS011;58277;47.316;18.908;2022-09-06T14:31:28;6.40;;;4.38;;
70707;SDS011;58277;47.316;18.908;2022-09-06T14:33:54;5.47;;;4.30;;
70707;SDS011;58277;47.316;18.908;2022-09-06T14:36:19;5.75;;;4.57;;
70707;SDS011;58277;47.316;18.908;2022-09-06T14:38:43;7.78;;;4.47;;
70707;SDS011;58277;47.316;18.908;2022-09-06T14:41:07;6.05;;;4.10;;
70707;SDS011;58277;47.316;18.908;2022-09-06T14:43:31;7.53;;;4.40;;
70707;SDS011;58277;47.316;18.908;2022-09-06T14:45:54;7.77;;;4.20;;
70707;SDS011;58277;47.316;18.908;2022-09-06T14:48:20;6.82;;;4.22;;
70707;SDS011;58277;47.316;18.908;2022-09-06T14:50:43;8.13;;;4.57;;
70707;SDS011;58277;47.316;18.908;2022-09-06T14:53:06;9.30;;;4.20;;
70707;SDS011;58277;47.316;18.908;2022-09-06T14:55:49;6.97;;;4.50;;
70707;SDS011;58277;47.316;18.908;2022-09-06T14:58:11;7.27;;;4.50;;
70707;SDS011;58277;47.316;18.908;2022-09-06T15:00:36;4.78;;;4.13;;
70707;SDS011;58277;47.316;18.908;2022-09-06T15:02:58;5.60;;;4.30;;
70707;SDS011;58277;47.316;18.908;2022-09-06T15:05:21;6.03;;;4.90;;
70707;SDS011;58277;47.316;18.908;2022-09-06T15:07:44;7.25;;;4.30;;
70707;SDS011;58277;47.316;18.908;2022-09-06T15:10:07;7.03;;;5.50;;
70707;SDS011;58277;47.316;18.908;2022-09-06T15:12:29;5.78;;;4.53;;
70707;SDS011;58277;47.316;18.908;2022-09-06T15:14:52;8.98;;;4.75;;
70707;SDS011;58277;47.316;18.908;2022-09-06T15:17:15;11.38;;;5.20;;
70707;SDS011;58277;47.316;18.908;2022-09-06T15:19:37;8.43;;;5.10;;
70707;SDS011;58277;47.316;18.908;2022-09-06T15:22:00;8.87;;;5.10;;
70707;SDS011;58277;47.316;18.908;2022-09-06T15:24:24;12.00;;;6.07;;
70707;SDS011;58277;47.316;18.908;2022-09-06T15:26:47;18.02;;;6.78;;
70707;SDS011;58277;47.316;18.908;2022-09-06T15:29:11;13.80;;;7.03;;
70707;SDS011;58277;47.316;18.908;2022-09-06T15:31:35;16.45;;;8.40;;
70707;SDS011;58277;47.316;18.908;2022-09-06T15:33:59;11.70;;;7.87;;
70707;SDS011;58277;47.316;18.908;2022-09-06T15:36:24;16.38;;;8.40;;
70707;SDS011;58277;47.316;18.908;2022-09-06T15:38:47;14.32;;;8.10;;
70707;SDS011;58277;47.316;18.908;2022-09-06T15:41:12;17.60;;;8.77;;
70707;SDS011;58277;47.316;18.908;2022-09-06T15:43:38;19.52;;;9.73;;
70707;SDS011;58277;47.316;18.908;2022-09-06T15:46:06;18.13;;;9.35;;
70707;SDS011;58277;47.316;18.908;2022-09-06T15:48:32;14.45;;;8.68;;
70707;SDS011;58277;47.316;18.908;2022-09-06T15:51:04;15.25;;;9.35;;
70707;SDS011;58277;47.316;18.908;2022-09-06T15:53:27;12.82;;;8.20;;
70707;SDS011;58277;47.316;18.908;2022-09-06T15:55:56;11.35;;;8.30;;
70707;SDS011;58277;47.316;18.908;2022-09-06T15:58:20;12.00;;;8.68;;
70707;SDS011;58277;47.316;18.908;2022-09-06T16:00:43;14.80;;;9.15;;
70707;SDS011;58277;47.316;18.908;2022-09-06T16:03:06;11.15;;;8.25;;
70707;SDS011;58277;47.316;18.908;2022-09-06T16:05:29;11.23;;;8.10;;
70707;SDS011;58277;47.316;18.908;2022-09-06T16:08:16;11.68;;;8.18;;
70707;SDS011;58277;47.316;18.908;2022-09-06T16:10:38;12.27;;;8.80;;
70707;SDS011;58277;47.316;18.908;2022-09-06T16:13:01;14.90;;;8.98;;
70707;SDS011;58277;47.316;18.908;2022-09-06T16:15:23;14.05;;;8.60;;
70707;SDS011;58277;47.316;18.908;2022-09-06T16:17:46;13.20;;;8.50;;